Time;durP1;ratioP1;P1;durP2;ratioP2;P2;SDS_P1;SDS_P2;PMS_P1;PMS_P2;Temp;Humidity;BMP_temperature;BMP_pressure;BME280_temperature;BME280_humidity;BME280_pressure;Samples;Min_cycle;Max_cycle;Signal;HPM_P1;HPM_P2
2022/02/10 00:20:49;;;;;;;7.13;4.20;;;2.20;99.40;;;;;;5093957;28;20047;-82
2022/02/10 00:23:53;;;;;;;8.93;5.22;;;1.40;99.40;;;;;;5094089;28;20780;-82
2022/02/10 00:35:23;;;;;;;9.88;5.00;;;2.20;99.20;;;;;;5122329;28;20502;-83
2022/02/10 00:37:59;;;;;;;9.90;5.35;;;2.20;99.10;;;;;;5099737;28;20043;-83
2022/02/10 00:40:34;;;;;;;6.80;3.83;;;2.20;99.30;;;;;;5122518;28;20062;-82
2022/02/10 00:43:07;;;;;;;7.05;3.88;;;3.50;99.80;;;;;;5113370;28;20047;-82
2022/02/10 00:45:40;;;;;;;;;;;2.10;99.30;;;;;;5110091;28;20051;-83
2022/02/10 00:48:14;;;;;;;8.40;4.18;;;2.00;99.20;;;;;;5105575;28;19926;-83
2022/02/10 00:50:49;;;;;;;;;;;2.10;99.50;;;;;;5110074;28;20058;-82
2022/02/10 00:53:26;;;;;;;7.68;4.15;;;2.00;99.80;;;;;;5090850;28;20414;-83
2022/02/10 00:55:58;;;;;;;6.97;4.35;;;2.10;99.70;;;;;;5111774;28;20495;-83
2022/02/10 00:58:32;;;;;;;8.65;4.03;;;2.60;99.90;;;;;;5108741;28;20539;-82
2022/02/10 01:10:23;;;;;;;7.25;4.03;;;2.10;99.70;;;;;;5099406;28;20543;-83
2022/02/10 01:13:29;;;;;;;4.57;2.60;;;2.10;99.60;;;;;;5130764;28;20047;-81
2022/02/10 01:29:57;;;;;;;6.07;2.92;;;1.30;99.80;;;;;;5152224;28;20073;-32
2022/02/10 01:32:30;;;;;;;5.22;2.88;;;;;;;;;;5150472;28;20053;-34
2022/02/10 01:35:06;;;;;;;4.72;2.45;;;2.20;99.80;;;;;;5151772;28;20537;-33
2022/02/10 01:37:39;;;;;;;4.45;2.65;;;2.30;99.10;;;;;;5153749;28;20316;-32
2022/02/10 01:40:22;;;;;;;3.25;2.15;;;2.20;98.50;;;;;;5151940;28;20077;-32
2022/02/10 02:05:39;;;;;;;4.00;2.10;;;2.20;99.20;;;;;;5151155;28;20073;-33
2022/02/10 02:08:15;;;;;;;2.55;1.77;;;2.20;98.40;;;;;;5151563;28;20050;-32
2022/02/10 02:10:47;;;;;;;2.58;2.00;;;;;;;;;;5149670;28;20411;-32
2022/02/10 02:13:21;;;;;;;4.80;2.35;;;2.10;98.00;;;;;;5147698;28;20049;-32
2022/02/10 02:15:54;;;;;;;4.28;2.67;;;2.10;98.20;;;;;;5152819;28;20076;-33
2022/02/10 02:18:27;;;;;;;3.83;2.30;;;2.10;98.20;;;;;;5151866;28;20490;-32
2022/02/10 02:21:00;;;;;;;4.25;2.35;;;2.10;98.50;;;;;;5154779;28;20548;-33
2022/02/10 02:23:33;;;;;;;4.13;1.95;;;3.00;99.30;;;;;;5148474;28;20126;-33
2022/02/10 02:26:13;;;;;;;3.85;2.40;;;2.90;99.40;;;;;;5148780;28;20599;-34
2022/02/10 02:28:50;;;;;;;3.15;2.25;;;2.00;98.70;;;;;;5135039;28;20046;-33
2022/02/10 02:31:27;;;;;;;3.80;1.67;;;2.10;98.80;;;;;;5153112;28;20061;-32
2022/02/10 02:40:08;;;;;;;3.90;2.20;;;2.20;98.80;;;;;;5147751;28;20047;-32
2022/02/10 03:05:38;;;;;;;3.08;1.80;;;3.80;99.30;;;;;;5149829;28;20599;-32
2022/02/10 03:08:17;;;;;;;2.05;1.80;;;;;;;;;;5149818;28;20413;-33
2022/02/10 03:13:28;;;;;;;3.03;2.63;;;;;;;;;;5148403;28;20076;-32
2022/02/10 03:19:02;;;;;;;3.67;1.75;;;4.90;99.30;;;;;;5150482;28;20698;-32
2022/02/10 03:21:57;;;;;;;2.72;1.90;;;;;;;;;;5146640;28;20038;-32
2022/02/10 04:13:05;;;;;;;3.58;2.03;;;;;;;;;;5110757;28;20054;-42
2022/02/10 04:21:42;;;;;;;2.40;1.50;;;;;;;;;;5109781;28;20065;-44
2022/02/10 04:24:09;;;;;;;1.70;1.45;;;;;;;;;;5107031;28;20059;-39
2022/02/10 05:15:21;;;;;;;3.85;2.28;;;;;;;;;;5119708;28;20043;-43
2022/02/10 05:20:48;;;;;;;8.82;3.75;;;;;;;;;;5111764;28;20608;-42
2022/02/10 05:34:22;;;;;;;10.30;5.03;;;;;;;;;;5088245;28;20050;-42
2022/02/10 05:36:58;;;;;;;10.73;4.07;;;;;;;;;;5099206;28;20447;-44
2022/02/10 05:39:34;;;;;;;9.95;4.45;;;;;;;;;;5098162;28;20408;-45
2022/02/10 05:45:09;;;;;;;5.93;3.05;;;;;;;;;;5102533;28;20058;-43
2022/02/10 05:48:34;;;;;;;6.93;2.90;;;;;;;;;;5101967;28;20455;-41
2022/02/10 05:56:35;;;;;;;11.20;4.10;;;;;;;;;;5098850;28;20047;-41
2022/02/10 06:40:46;;;;;;;7.78;4.10;;;;;;;;;;5088007;28;20495;-41
2022/02/10 06:52:40;;;;;;;7.72;3.97;;;;;;;;;;5104396;28;20051;-42
2022/02/10 07:02:35;;;;;;;7.93;4.32;;;;;;;;;;4418908;28;10001374;-40
2022/02/10 07:03:59;;;;;;;8.25;3.63;;;;;;;;;;5082530;28;20044;-38
2022/02/10 07:51:55;;;;;;;14.30;4.65;;;;;;;;;;5158261;28;20046;-86
2022/02/10 07:54:34;;;;;;;14.25;5.00;;;;;;;;;;5164373;28;20068;-85
2022/02/10 07:57:22;;;;;;;11.07;4.75;;;;;;;;;;5170244;28;20061;-85
2022/02/10 09:00:06;;;;;;;5.10;2.20;;;;;;;;;;5153422;28;20053;-86
2022/02/10 09:03:10;;;;;;;4.07;1.85;;;;;;;;;;5142593;28;20042;-86
2022/02/10 09:05:45;;;;;;;8.68;2.28;;;;;;;;;;5178959;28;20054;-84
2022/02/10 09:23:38;;;;;;;10.43;2.70;;;;;;;;;;5165797;28;20054;-86
2022/02/10 09:26:56;;;;;;;5.18;2.70;;;;;;;;;;5157432;28;20053;-88
2022/02/10 09:50:57;;;;;;;9.30;3.53;;;8.60;75.20;;;;;;5165934;28;20077;-85
2022/02/10 09:55:31;;;;;;;4.80;2.70;;;;;;;;;;5175000;28;20053;-87
2022/02/10 10:01:01;;;;;;;7.60;2.30;;;;;;;;;;5180874;28;19936;-88
2022/02/10 10:03:38;;;;;;;8.07;2.67;;;;;;;;;;5178216;28;20042;-86
2022/02/10 10:06:24;;;;;;;7.88;2.45;;;;;;;;;;5172189;28;20045;-87
2022/02/10 10:12:28;;;;;;;4.88;2.35;;;9.60;72.20;;;;;;5176034;28;22294;-87
2022/02/10 10:21:17;;;;;;;3.60;2.50;;;9.80;70.90;;;;;;5189651;28;20080;-86
2022/02/10 10:49:54;;;;;;;10.90;2.95;;;10.40;70.00;;;;;;5152466;28;20491;-88
2022/02/10 10:52:51;;;;;;;6.65;2.92;;;10.60;68.90;;;;;;5161141;28;20060;-88
2022/02/10 11:38:42;;;;;;;10.50;3.45;;;11.60;66.70;;;;;;5166505;28;20056;-88
2022/02/10 14:09:10;;;;;;;7.55;3.45;;;11.80;65.80;;;;;;5180866;28;20618;-87
2022/02/10 14:12:59;;;;;;;5.35;3.30;;;11.60;66.90;;;;;;5191010;28;20046;-86
2022/02/10 14:18:29;;;;;;;7.90;3.38;;;11.70;66.60;;;;;;5178327;28;20527;-87
2022/02/10 14:21:24;;;;;;;5.53;3.22;;;11.60;67.50;;;;;;5178163;28;20058;-86
2022/02/10 14:26:42;;;;;;;8.73;3.85;;;11.50;67.90;;;;;;5177425;28;20535;-87
2022/02/10 14:29:15;;;;;;;10.77;3.13;;;11.40;67.70;;;;;;5176185;28;20049;-89
2022/02/10 14:31:52;;;;;;;5.07;3.33;;;11.50;67.70;;;;;;5173875;28;20049;-87
2022/02/10 14:34:28;;;;;;;9.13;3.78;;;11.60;68.10;;;;;;5177733;28;20049;-89
2022/02/10 14:37:18;;;;;;;8.30;3.17;;;11.40;67.60;;;;;;5195154;28;20089;-86
2022/02/10 14:40:23;;;;;;;10.20;3.30;;;11.40;68.20;;;;;;5179591;28;20064;-87
2022/02/10 15:48:45;;;;;;;11.02;4.25;;;10.90;68.70;;;;;;5197284;28;20470;-85
2022/02/10 15:54:13;;;;;;;10.52;4.32;;;10.80;69.30;;;;;;5182474;28;20037;-86
2022/02/10 16:14:36;;;;;;;11.80;4.13;;;10.60;69.60;;;;;;5172654;28;20053;-86
2022/02/10 16:19:13;;;;;;;7.72;3.63;;;10.50;70.70;;;;;;5196278;28;20866;-86
2022/02/10 16:21:58;;;;;;;7.93;3.70;;;10.50;70.40;;;;;;5179801;28;20057;-87
2022/02/10 16:24:46;;;;;;;17.25;5.90;;;10.40;70.90;;;;;;5186857;28;20041;-86
2022/02/10 16:27:27;;;;;;;7.55;4.20;;;10.40;71.00;;;;;;5197870;28;20720;-85
2022/02/10 16:30:08;;;;;;;5.88;3.97;;;10.30;71.50;;;;;;5185491;28;20058;-87
2022/02/10 16:32:45;;;;;;;7.25;3.78;;;10.30;71.40;;;;;;5202124;28;20045;-86
2022/02/10 16:35:25;;;;;;;10.63;5.10;;;10.20;72.70;;;;;;5157676;28;20743;-86
2022/02/10 16:38:03;;;;;;;14.98;4.28;;;10.20;72.00;;;;;;5167890;28;20053;-86
2022/02/10 16:40:41;;;;;;;20.27;5.25;;;10.20;72.30;;;;;;5170540;28;20049;-88
2022/02/10 16:43:19;;;;;;;9.32;5.03;;;10.20;72.40;;;;;;5184189;28;20075;-88
2022/02/10 16:45:56;;;;;;;8.45;4.65;;;10.10;72.80;;;;;;5178231;28;20507;-87
2022/02/10 16:48:34;;;;;;;9.27;3.85;;;10.10;72.50;;;;;;5192915;28;20037;-88
2022/02/10 16:51:12;;;;;;;11.07;5.03;;;;;;;;;;5156864;28;20049;-86
2022/02/10 16:53:54;;;;;;;12.02;4.72;;;9.90;72.30;;;;;;5190960;28;20570;-88
2022/02/10 16:56:34;;;;;;;8.20;4.35;;;14.40;75.60;;;;;;5172183;28;20045;-85
2022/02/10 16:59:43;;;;;;;14.35;5.28;;;;;;;;;;5174840;28;20056;-86
2022/02/10 17:25:37;;;;;;;11.07;5.25;;;9.80;74.50;;;;;;5171240;28;20052;-88
2022/02/10 17:28:12;;;;;;;16.95;5.80;;;9.80;75.10;;;;;;5159939;28;20525;-86
2022/02/10 17:33:39;;;;;;;14.80;4.95;;;9.80;74.90;;;;;;5172920;28;20524;-88
2022/02/10 17:36:38;;;;;;;14.05;5.65;;;9.80;74.60;;;;;;5156439;28;20056;-87
2022/02/10 17:53:30;;;;;;;10.45;5.53;;;9.80;75.70;;;;;;5175878;28;20045;-85
2022/02/10 17:56:02;;;;;;;11.75;5.68;;;9.80;75.80;;;;;;5163206;28;20057;-85
2022/02/10 17:58:38;;;;;;;12.07;5.25;;;9.70;75.70;;;;;;5148888;28;20551;-88
2022/02/10 18:01:11;;;;;;;15.10;5.97;;;9.80;75.50;;;;;;5173170;28;20715;-87
2022/02/10 18:03:44;;;;;;;12.07;6.65;;;9.70;76.00;;;;;;5187568;28;20056;-86
2022/02/10 18:14:29;;;;;;;11.88;6.25;;;9.60;76.00;;;;;;5162729;28;20533;-87
2022/02/10 18:20:00;;;;;;;18.30;6.80;;;9.60;76.10;;;;;;5188626;28;20540;-87
2022/02/10 19:10:12;;;;;;;21.95;10.70;;;8.70;84.70;;;;;;5175906;28;20072;-87
2022/02/10 19:12:52;;;;;;;22.25;10.82;;;8.70;84.60;;;;;;5150350;28;20054;-86
2022/02/10 19:15:33;;;;;;;16.98;10.73;;;8.60;84.90;;;;;;5148747;28;20057;-88
2022/02/10 19:18:08;;;;;;;19.27;10.90;;;8.60;85.10;;;;;;5173087;28;20041;-87
2022/02/10 19:20:44;;;;;;;22.55;11.43;;;8.50;85.20;;;;;;5175499;28;20041;-87
2022/02/10 19:23:23;;;;;;;18.45;11.13;;;8.50;85.80;;;;;;5149343;28;20702;-86
2022/02/10 19:25:58;;;;;;;19.02;11.32;;;8.50;86.40;;;;;;5183454;28;20042;-86
2022/02/10 19:28:30;;;;;;;16.55;9.73;;;8.40;86.30;;;;;;5168708;28;20053;-87
2022/02/10 19:31:05;;;;;;;19.88;9.38;;;8.40;86.80;;;;;;5154804;28;20053;-88
2022/02/10 19:33:38;;;;;;;22.27;10.25;;;8.40;86.80;;;;;;5164866;28;20068;-87
2022/02/10 19:36:10;;;;;;;19.63;9.82;;;8.30;86.50;;;;;;5181215;28;20050;-85
2022/02/10 19:38:43;;;;;;;18.67;9.63;;;8.30;87.00;;;;;;5164230;28;20053;-87
2022/02/10 19:41:21;;;;;;;20.52;10.05;;;8.20;86.70;;;;;;5187437;28;21757;-85
2022/02/10 19:44:07;;;;;;;16.50;9.50;;;8.20;87.00;;;;;;5152838;28;20076;-87
2022/02/10 19:46:44;;;;;;;21.48;10.75;;;8.10;86.90;;;;;;5165443;28;20054;-85
2022/02/10 19:49:22;;;;;;;;;;;8.00;87.20;;;;;;5156685;28;20118;-84
2022/02/10 19:51:55;;;;;;;15.75;9.68;;;7.80;87.80;;;;;;5167765;28;20740;-85
2022/02/10 19:54:30;;;;;;;19.98;10.88;;;7.80;87.60;;;;;;5184440;28;20491;-86
2022/02/10 19:57:03;;;;;;;25.58;12.00;;;7.80;87.70;;;;;;5180866;28;20045;-85
2022/02/10 19:59:35;;;;;;;21.90;12.15;;;7.80;88.00;;;;;;5174110;28;20137;-86
2022/02/10 20:02:10;;;;;;;23.05;11.82;;;7.70;87.90;;;;;;5182967;28;20068;-85
2022/02/10 20:04:48;;;;;;;17.83;10.50;;;7.70;87.90;;;;;;5180736;28;20813;-85
2022/02/10 20:07:20;;;;;;;17.38;9.40;;;7.60;88.40;;;;;;5177858;28;20042;-85
2022/02/10 20:09:53;;;;;;;21.40;10.20;;;7.50;88.70;;;;;;5152096;28;20526;-86
2022/02/10 20:12:25;;;;;;;17.42;9.07;;;7.50;89.10;;;;;;5200275;28;20033;-84
2022/02/10 20:15:00;;;;;;;23.00;8.70;;;7.50;89.40;;;;;;5186399;28;20049;-85
2022/02/10 20:17:33;;;;;;;16.38;8.70;;;7.50;89.50;;;;;;5179576;28;20065;-86
2022/02/10 20:20:06;;;;;;;16.17;10.18;;;7.40;90.00;;;;;;5157467;28;20058;-86
2022/02/10 20:22:39;;;;;;;19.38;11.63;;;7.50;90.20;;;;;;5156773;28;20069;-86
2022/02/10 20:25:31;;;;;;;25.02;12.18;;;7.40;90.30;;;;;;5173245;28;20045;-85
2022/02/10 20:28:07;;;;;;;23.48;11.25;;;7.40;90.60;;;;;;5174997;28;20042;-85
2022/02/10 20:30:40;;;;;;;22.23;11.68;;;7.40;90.60;;;;;;5165001;28;20050;-85
2022/02/10 20:33:12;;;;;;;23.67;12.63;;;7.40;90.70;;;;;;5190047;28;20046;-84
2022/02/10 20:35:49;;;;;;;29.38;14.10;;;7.50;90.90;;;;;;5185772;28;20050;-84
2022/02/10 20:38:23;;;;;;;25.55;15.20;;;7.40;90.90;;;;;;5185731;28;20057;-86
2022/02/10 20:41:00;;;;;;;32.00;15.25;;;7.50;91.30;;;;;;5189848;28;20058;-83
2022/02/10 20:43:33;;;;;;;30.45;17.92;;;7.40;91.40;;;;;;5172308;28;20057;-86
2022/02/10 20:46:08;;;;;;;25.60;14.43;;;7.50;91.40;;;;;;5171083;28;20054;-85
2022/02/10 20:48:42;;;;;;;33.58;15.30;;;7.40;91.50;;;;;;5164236;28;20073;-84
2022/02/10 20:51:15;;;;;;;26.98;14.80;;;7.90;91.80;;;;;;5181065;28;20054;-86
2022/02/10 20:53:49;;;;;;;23.52;13.18;;;7.40;91.80;;;;;;5153795;28;20054;-85
2022/02/10 20:56:22;;;;;;;29.63;12.90;;;7.40;92.10;;;;;;5190387;28;20072;-85
2022/02/10 20:58:59;;;;;;;30.27;12.90;;;7.40;92.10;;;;;;5175681;28;20056;-85
2022/02/10 21:01:31;;;;;;;26.50;14.63;;;7.40;92.30;;;;;;5175572;28;20053;-84
2022/02/10 21:04:04;;;;;;;25.58;14.65;;;7.40;92.30;;;;;;5180892;28;20041;-84
2022/02/10 21:07:42;;;;;;;25.42;12.98;;;7.40;92.60;;;;;;5154663;28;20042;-84
2022/02/10 21:09:44;;;;;;;24.23;13.43;;;7.50;92.70;;;;;;5162444;28;20045;-85
2022/02/10 21:12:17;;;;;;;26.25;13.75;;;7.40;92.80;;;;;;5169956;28;20057;-83
2022/02/10 21:14:51;;;;;;;29.00;15.77;;;7.40;93.00;;;;;;5159231;28;20057;-85
2022/02/10 21:17:26;;;;;;;31.70;14.48;;;7.40;93.00;;;;;;5162185;28;20057;-85
2022/02/10 21:20:03;;;;;;;29.90;14.48;;;7.40;92.90;;;;;;5181709;28;20480;-85
2022/02/10 21:22:42;;;;;;;24.00;13.45;;;7.40;93.10;;;;;;5179435;28;20050;-86
2022/02/10 21:25:22;;;;;;;27.83;14.77;;;7.40;93.10;;;;;;5191081;28;20414;-85
2022/02/10 21:27:55;;;;;;;28.45;13.88;;;7.30;93.30;;;;;;5166396;28;20045;-85
2022/02/10 21:30:28;;;;;;;28.73;13.93;;;8.70;94.00;;;;;;5176829;28;20053;-82
2022/02/10 21:33:03;;;;;;;23.65;12.88;;;7.20;93.60;;;;;;5169691;28;20414;-86
2022/02/10 21:36:04;;;;;;;27.02;13.80;;;7.20;93.90;;;;;;5202753;28;20034;-84
2022/02/10 21:38:31;;;;;;;26.10;13.55;;;7.20;94.10;;;;;;5199533;28;20042;-85
2022/02/10 21:41:35;;;;;;;28.15;13.43;;;7.10;94.10;;;;;;5175120;28;20061;-87
2022/02/10 21:59:07;;;;;;;23.77;13.57;;;7.00;94.80;;;;;;5179063;28;20054;-85
2022/02/10 22:07:05;;;;;;;24.58;14.15;;;6.80;94.80;;;;;;5172620;28;20054;-83
2022/02/10 22:09:52;;;;;;;23.42;12.82;;;7.60;95.20;;;;;;5182593;28;20706;-87
2022/02/10 22:23:25;;;;;;;27.33;12.77;;;6.60;95.70;;;;;;5173883;28;20065;-86
2022/02/10 22:26:04;;;;;;;20.40;12.90;;;6.60;95.80;;;;;;5170116;28;20053;-86
2022/02/10 22:28:48;;;;;;;26.73;12.63;;;6.60;96.10;;;;;;5176337;28;20045;-85
2022/02/10 22:34:05;;;;;;;24.02;12.30;;;6.50;96.50;;;;;;5178536;28;20410;-85
2022/02/10 22:36:40;;;;;;;19.65;11.13;;;6.50;96.60;;;;;;5142863;28;20052;-83
2022/02/10 22:39:14;;;;;;;23.33;12.05;;;6.50;96.80;;;;;;5167137;28;20057;-84
2022/02/10 22:41:47;;;;;;;19.63;11.60;;;6.50;97.10;;;;;;5164141;28;20054;-86
2022/02/10 22:44:21;;;;;;;20.77;10.80;;;6.10;96.90;;;;;;5151276;28;20057;-84
2022/02/10 22:46:54;;;;;;;23.08;11.02;;;6.50;97.30;;;;;;5190968;28;20061;-85
2022/02/10 22:49:26;;;;;;;21.27;11.73;;;6.50;97.80;;;;;;5176326;28;20042;-85
2022/02/10 22:52:00;;;;;;;20.58;11.00;;;6.50;97.80;;;;;;5159846;28;20419;-85
2022/02/10 22:54:32;;;;;;;20.05;10.10;;;6.50;97.90;;;;;;5197111;28;20566;-85
2022/02/10 22:57:05;;;;;;;22.45;10.85;;;6.50;98.40;;;;;;5196391;28;20042;-86
2022/02/10 22:59:37;;;;;;;22.98;11.02;;;6.50;98.40;;;;;;5181962;28;20576;-85
2022/02/10 23:02:10;;;;;;;21.03;10.23;;;6.50;98.40;;;;;;4501205;28;10000171;-83
2022/02/10 23:04:42;;;;;;;20.35;10.85;;;6.50;98.50;;;;;;5172911;28;20045;-83
2022/02/10 23:07:15;;;;;;;21.60;11.90;;;6.50;98.60;;;;;;5181145;28;20387;-85
2022/02/10 23:09:53;;;;;;;20.55;11.00;;;6.60;98.60;;;;;;5159162;28;20057;-86
2022/02/10 23:12:25;;;;;;;24.90;12.05;;;7.30;99.20;;;;;;5178982;28;20046;-85
2022/02/10 23:14:58;;;;;;;23.85;11.73;;;6.60;98.90;;;;;;5173599;28;20041;-86
2022/02/10 23:17:31;;;;;;;29.15;12.15;;;5.20;98.60;;;;;;5163543;28;20049;-85
2022/02/10 23:20:07;;;;;;;22.55;12.50;;;6.70;99.20;;;;;;5188712;28;20133;-85
2022/02/10 23:22:40;;;;;;;24.27;12.48;;;;;;;;;;5181952;28;20042;-86
2022/02/10 23:25:12;;;;;;;23.60;11.60;;;6.80;98.90;;;;;;5177383;28;20049;-85
2022/02/10 23:27:44;;;;;;;22.80;12.05;;;6.80;99.00;;;;;;5182042;28;20519;-85
2022/02/10 23:30:18;;;;;;;23.30;11.93;;;6.80;99.00;;;;;;5183762;28;20963;-85
2022/02/10 23:32:53;;;;;;;23.77;11.73;;;6.80;99.20;;;;;;5181224;28;20046;-86
2022/02/10 23:38:29;;;;;;;24.40;10.93;;;6.90;98.60;;;;;;5151079;28;20057;-85
2022/02/10 23:43:49;;;;;;;23.02;10.40;;;6.90;98.50;;;;;;5199953;28;20045;-84
2022/02/10 23:46:22;;;;;;;;;;;6.90;98.50;;;;;;5186872;28;20053;-84
2022/02/10 23:48:56;;;;;;;23.00;9.27;;;6.00;98.30;;;;;;5186214;28;19928;-85
2022/02/10 23:51:33;;;;;;;18.95;9.30;;;6.80;98.70;;;;;;5172632;28;20049;-85
2022/02/10 23:54:06;;;;;;;18.60;9.70;;;6.90;98.70;;;;;;5174771;28;20057;-83
2022/02/10 23:56:45;;;;;;;17.55;9.60;;;6.90;99.00;;;;;;5171563;28;20057;-84
